createdAt,value
2023-04-16T00:02:14.001Z,100.00
2023-04-16T00:04:42.898Z,100.00
2023-04-16T00:07:10.989Z,100.00
2023-04-16T00:09:39.067Z,100.00
2023-04-16T00:12:07.818Z,99.54
2023-04-16T00:14:36.236Z,98.96
2023-04-16T00:17:04.844Z,99.45
2023-04-16T00:19:34.569Z,100.00
2023-04-16T00:22:02.860Z,100.00
2023-04-16T00:24:31.060Z,100.00
2023-04-16T00:26:59.133Z,100.00
2023-04-16T00:29:28.930Z,100.00
2023-04-16T00:31:57.018Z,100.00
2023-04-16T00:34:24.963Z,100.00
2023-04-16T00:36:54.269Z,100.00
2023-04-16T00:39:22.197Z,100.00
2023-04-16T00:41:50.736Z,99.86
2023-04-16T00:44:18.830Z,97.74
2023-04-16T00:46:47.390Z,97.39
2023-04-16T00:49:16.012Z,97.07
2023-04-16T00:51:44.112Z,97.84
2023-04-16T00:54:13.660Z,98.85
2023-04-16T00:56:41.784Z,99.76
2023-04-16T00:59:10.802Z,99.44
2023-04-16T01:01:38.950Z,97.63
2023-04-16T01:04:07.687Z,96.39
2023-04-16T01:06:36.533Z,95.55
2023-04-16T01:09:04.767Z,94.81
2023-04-16T01:11:34.073Z,94.11
2023-04-16T01:14:02.085Z,93.48
2023-04-16T01:16:30.243Z,93.07
2023-04-16T01:18:58.294Z,92.95
2023-04-16T01:21:27.667Z,92.21
2023-04-16T01:23:55.751Z,92.39
2023-04-16T01:26:23.743Z,92.29
2023-04-16T01:28:51.860Z,92.13
2023-04-16T01:31:19.824Z,91.61
2023-04-16T01:33:47.832Z,91.91
2023-04-16T01:36:15.798Z,92.51
2023-04-16T01:38:45.118Z,92.66
2023-04-16T01:41:13.071Z,93.41
2023-04-16T01:43:42.093Z,93.64
2023-04-16T01:46:15.954Z,94.04
2023-04-16T01:48:44.134Z,94.10
2023-04-16T01:51:12.105Z,94.46
2023-04-16T01:53:40.570Z,94.30
2023-04-16T01:56:09.951Z,93.44
2023-04-16T01:58:38.543Z,92.99
2023-04-16T02:01:06.932Z,92.88
2023-04-16T02:03:35.263Z,92.95
2023-04-16T02:06:03.270Z,92.89
2023-04-16T02:08:31.477Z,93.46
2023-04-16T02:10:59.506Z,93.54
2023-04-16T02:13:28.820Z,93.75
2023-04-16T02:15:56.767Z,93.78
2023-04-16T02:18:24.736Z,93.95
2023-04-16T02:20:52.751Z,93.82
2023-04-16T02:23:20.749Z,94.14
2023-04-16T02:25:48.946Z,94.83
2023-04-16T02:28:18.300Z,95.47
2023-04-16T02:30:47.596Z,95.24
2023-04-16T02:33:15.814Z,95.07
2023-04-16T02:35:43.971Z,96.33
2023-04-16T02:38:12.273Z,96.98
2023-04-16T02:40:40.301Z,97.86
2023-04-16T02:43:08.327Z,100.00
2023-04-16T02:45:36.391Z,100.00
2023-04-16T02:48:07.340Z,100.00
2023-04-16T02:50:35.854Z,100.00
2023-04-16T02:53:04.483Z,100.00
2023-04-16T02:55:32.503Z,100.00
2023-04-16T02:58:00.749Z,100.00
2023-04-16T03:00:28.711Z,100.00
2023-04-16T03:02:56.735Z,100.00
2023-04-16T03:05:26.334Z,100.00
2023-04-16T03:07:57.065Z,100.00
2023-04-16T03:10:26.028Z,100.00
2023-04-16T03:12:54.147Z,100.00
2023-04-16T03:15:22.356Z,100.00
2023-04-16T03:17:50.708Z,100.00
2023-04-16T03:20:19.314Z,100.00
2023-04-16T03:22:49.025Z,100.00
2023-04-16T03:25:17.199Z,100.00
2023-04-16T03:27:45.537Z,100.00
2023-04-16T03:30:14.429Z,100.00
2023-04-16T03:32:42.826Z,100.00
2023-04-16T03:35:11.414Z,100.00
2023-04-16T03:37:39.559Z,100.00
2023-04-16T03:40:10.437Z,100.00
2023-04-16T03:42:38.357Z,100.00
2023-04-16T03:45:07.127Z,100.00
2023-04-16T03:47:35.167Z,100.00
2023-04-16T03:50:03.186Z,100.00
2023-04-16T03:52:31.319Z,100.00
2023-04-16T03:55:00.129Z,100.00
2023-04-16T03:57:29.607Z,100.00
2023-04-16T03:59:57.498Z,100.00
2023-04-16T04:02:25.724Z,100.00
2023-04-16T04:04:53.838Z,100.00
2023-04-16T04:07:21.830Z,100.00
2023-04-16T04:09:49.829Z,100.00
2023-04-16T04:12:17.829Z,100.00
2023-04-16T04:14:47.293Z,100.00
2023-04-16T04:17:15.612Z,100.00
2023-04-16T04:19:54.242Z,100.00
2023-04-16T04:22:28.752Z,100.00
2023-04-16T04:24:56.789Z,100.00
2023-04-16T04:27:24.687Z,100.00
2023-04-16T04:29:54.639Z,100.00
2023-04-16T04:32:22.749Z,100.00
2023-04-16T04:34:50.718Z,100.00
2023-04-16T04:37:18.690Z,100.00
2023-04-16T04:39:46.657Z,100.00
2023-04-16T04:42:15.176Z,100.00
2023-04-16T04:44:43.240Z,100.00
2023-04-16T04:47:12.745Z,100.00
2023-04-16T04:49:40.894Z,100.00
2023-04-16T04:52:09.375Z,100.00
2023-04-16T04:54:37.395Z,100.00
2023-04-16T04:57:05.486Z,100.00
2023-04-16T04:59:33.463Z,100.00
2023-04-16T05:02:02.609Z,100.00
2023-04-16T05:04:32.366Z,100.00
2023-04-16T05:07:00.492Z,100.00
2023-04-16T05:09:28.603Z,100.00
2023-04-16T05:11:57.662Z,100.00
2023-04-16T05:14:25.659Z,100.00
2023-04-16T05:16:54.133Z,100.00
2023-04-16T05:19:22.288Z,100.00
2023-04-16T05:21:51.787Z,100.00
2023-04-16T05:24:21.352Z,100.00
2023-04-16T05:26:49.831Z,100.00
2023-04-16T05:29:17.831Z,100.00
2023-04-16T05:31:46.120Z,100.00
2023-04-16T05:34:14.115Z,100.00
2023-04-16T05:36:42.073Z,100.00
2023-04-16T05:39:11.646Z,100.00
2023-04-16T05:41:39.699Z,100.00
2023-04-16T05:44:07.588Z,100.00
2023-04-16T05:46:35.580Z,100.00
2023-04-16T05:49:03.762Z,100.00
2023-04-16T05:51:32.174Z,100.00
2023-04-16T05:54:00.143Z,100.00
2023-04-16T05:56:29.617Z,100.00
2023-04-16T05:58:58.142Z,100.00
2023-04-16T06:01:26.715Z,97.69
2023-04-16T06:03:54.865Z,96.90
2023-04-16T06:06:22.921Z,96.62
2023-04-16T06:08:50.926Z,96.82
2023-04-16T06:11:18.856Z,96.80
2023-04-16T06:13:48.175Z,95.85
2023-04-16T06:16:16.260Z,96.60
2023-04-16T06:18:44.342Z,92.80
2023-04-16T06:21:12.415Z,92.82
2023-04-16T06:23:40.542Z,93.72
2023-04-16T06:26:08.805Z,92.96
2023-04-16T06:28:37.270Z,92.90
2023-04-16T06:31:07.145Z,93.41
2023-04-16T06:33:35.176Z,89.97
2023-04-16T06:36:03.125Z,88.90
2023-04-16T06:38:31.203Z,88.83
2023-04-16T06:40:59.634Z,89.71
2023-04-16T06:43:27.771Z,87.36
2023-04-16T06:45:55.734Z,87.26
2023-04-16T06:48:25.440Z,87.87
2023-04-16T06:50:53.517Z,87.12
2023-04-16T06:53:21.430Z,85.15
2023-04-16T06:55:49.750Z,86.07
2023-04-16T06:58:17.656Z,87.28
2023-04-16T07:00:46.215Z,84.22
2023-04-16T07:03:14.274Z,84.30
2023-04-16T07:05:43.718Z,83.26
2023-04-16T07:08:12.003Z,83.57
2023-04-16T07:10:39.986Z,82.28
2023-04-16T07:13:07.908Z,80.98
2023-04-16T07:15:35.883Z,80.69
2023-04-16T07:18:04.020Z,81.83
2023-04-16T07:20:32.150Z,82.03
2023-04-16T07:23:01.708Z,83.06
2023-04-16T07:25:29.852Z,83.21
2023-04-16T07:27:57.904Z,80.34
2023-04-16T07:30:26.170Z,80.54
2023-04-16T07:32:56.034Z,81.72
2023-04-16T07:35:24.100Z,79.30
2023-04-16T07:37:52.176Z,78.68
2023-04-16T07:40:21.678Z,79.50
2023-04-16T07:42:50.210Z,79.67
2023-04-16T07:45:18.649Z,77.91
2023-04-16T07:47:47.231Z,77.64
2023-04-16T07:50:16.487Z,75.95
2023-04-16T07:52:45.521Z,71.82
2023-04-16T07:55:13.550Z,71.24
2023-04-16T07:57:43.542Z,68.97
2023-04-16T08:00:12.395Z,71.22
2023-04-16T08:02:40.502Z,66.73
2023-04-16T08:05:09.080Z,62.98
2023-04-16T08:07:36.999Z,64.47
2023-04-16T08:10:06.682Z,63.73
2023-04-16T08:12:34.642Z,60.45
2023-04-16T08:15:04.124Z,63.24
2023-04-16T08:17:33.250Z,60.75
2023-04-16T08:20:01.859Z,58.97
2023-04-16T08:22:29.911Z,58.36
2023-04-16T08:24:57.826Z,55.96
2023-04-16T08:27:26.115Z,57.07
2023-04-16T08:29:54.345Z,53.68
2023-04-16T08:32:23.749Z,55.43
2023-04-16T08:34:51.779Z,53.00
2023-04-16T08:37:19.741Z,49.84
2023-04-16T08:39:47.702Z,50.13
2023-04-16T08:42:24.732Z,48.94
2023-04-16T08:45:01.251Z,47.14
2023-04-16T08:47:34.327Z,50.85
2023-04-16T08:50:04.168Z,51.38
2023-04-16T08:52:32.828Z,49.20
2023-04-16T08:55:06.457Z,49.64
2023-04-16T08:57:39.316Z,47.95
2023-04-16T09:00:10.484Z,47.40
2023-04-16T09:02:40.639Z,47.15
2023-04-16T09:05:11.162Z,45.82
2023-04-16T09:07:39.952Z,47.23
2023-04-16T09:10:09.597Z,49.25
2023-04-16T09:12:37.632Z,45.79
2023-04-16T09:15:07.280Z,45.21
2023-04-16T09:17:36.340Z,44.07
2023-04-16T09:20:08.810Z,44.81
2023-04-16T09:22:37.505Z,44.33
2023-04-16T09:25:06.829Z,44.43
2023-04-16T09:27:34.741Z,44.96
2023-04-16T09:30:02.702Z,44.90
2023-04-16T09:32:30.838Z,45.84
2023-04-16T09:34:59.710Z,46.06
2023-04-16T09:37:30.851Z,45.19
2023-04-16T09:40:00.518Z,47.11
2023-04-16T09:42:29.833Z,45.73
2023-04-16T09:45:00.281Z,44.91
2023-04-16T09:47:41.017Z,44.65
2023-04-16T09:50:11.954Z,46.05
2023-04-16T09:52:45.565Z,42.45
2023-04-16T09:55:13.531Z,43.78
2023-04-16T09:57:41.763Z,44.16
2023-04-16T10:00:11.487Z,43.25
2023-04-16T10:02:42.925Z,44.24
2023-04-16T10:05:16.802Z,44.35
2023-04-16T10:07:46.385Z,44.01
2023-04-16T10:10:14.398Z,46.59
2023-04-16T10:12:43.713Z,44.60
2023-04-16T10:15:12.676Z,44.14
2023-04-16T10:17:40.941Z,44.67
2023-04-16T10:20:10.542Z,45.10
2023-04-16T10:22:38.659Z,46.98
2023-04-16T10:25:09.243Z,45.79
2023-04-16T10:27:38.301Z,46.27
2023-04-16T10:30:09.298Z,45.11
2023-04-16T10:32:39.082Z,44.79
2023-04-16T10:35:08.036Z,45.77
2023-04-16T10:37:38.662Z,47.44
2023-04-16T10:40:26.686Z,50.28
2023-04-16T10:42:58.597Z,49.70
2023-04-16T10:45:33.705Z,51.03
2023-04-16T10:48:06.382Z,52.08
2023-04-16T10:50:37.836Z,51.51
2023-04-16T10:53:23.886Z,52.90
2023-04-16T10:56:15.579Z,51.55
2023-04-16T10:58:43.889Z,52.63
2023-04-16T11:01:16.733Z,52.53
2023-04-16T11:03:48.130Z,52.29
2023-04-16T11:06:18.433Z,53.58
2023-04-16T11:08:54.474Z,53.37
2023-04-16T11:11:24.787Z,53.97
2023-04-16T11:13:57.230Z,54.56
2023-04-16T11:16:27.835Z,54.55
2023-04-16T11:18:57.249Z,55.58
2023-04-16T11:21:26.789Z,55.05
2023-04-16T11:23:56.935Z,56.29
2023-04-16T11:26:28.692Z,56.70
2023-04-16T11:28:57.486Z,59.86
2023-04-16T11:31:27.499Z,60.33
2023-04-16T11:33:57.931Z,62.43
2023-04-16T11:36:27.792Z,64.80
2023-04-16T11:39:03.713Z,65.95
2023-04-16T11:41:33.205Z,66.02
2023-04-16T11:44:01.621Z,67.29
2023-04-16T11:46:40.479Z,67.89
2023-04-16T11:49:08.875Z,69.82
2023-04-16T11:51:41.709Z,70.29
2023-04-16T11:54:11.989Z,70.78
2023-04-16T11:56:47.907Z,70.78
2023-04-16T11:59:18.067Z,68.57
2023-04-16T12:01:49.817Z,69.81
2023-04-16T12:04:19.905Z,70.24
2023-04-16T12:07:07.080Z,70.54
2023-04-16T12:09:38.725Z,70.64
2023-04-16T12:12:26.607Z,72.97
2023-04-16T12:14:54.907Z,73.44
2023-04-16T12:17:23.056Z,75.40
2023-04-16T12:19:53.119Z,77.26
2023-04-16T12:22:29.385Z,78.08
2023-04-16T12:24:59.886Z,76.59
2023-04-16T12:27:43.273Z,77.38
2023-04-16T12:30:12.125Z,74.16
2023-04-16T12:32:40.359Z,74.79
2023-04-16T12:35:10.142Z,74.53
2023-04-16T12:37:39.452Z,74.07
2023-04-16T12:40:08.893Z,71.93
2023-04-16T12:42:38.423Z,71.76
2023-04-16T12:45:07.589Z,72.28
2023-04-16T12:47:35.686Z,70.62
2023-04-16T12:50:03.774Z,70.69
2023-04-16T12:52:32.069Z,69.43
2023-04-16T12:55:00.089Z,69.02
2023-04-16T12:57:28.941Z,69.78
2023-04-16T12:59:59.255Z,68.39
2023-04-16T13:02:27.820Z,68.41
2023-04-16T13:04:55.991Z,60.39
2023-04-16T13:07:24.278Z,55.57
2023-04-16T13:09:52.680Z,54.27
2023-04-16T13:12:21.082Z,53.35
2023-04-16T13:14:49.208Z,53.66
2023-04-16T13:17:18.617Z,50.31
2023-04-16T13:19:46.640Z,49.08
2023-04-16T13:22:14.739Z,49.38
2023-04-16T13:24:42.826Z,47.90
2023-04-16T13:27:11.607Z,47.76
2023-04-16T13:29:39.860Z,46.89
2023-04-16T13:32:08.674Z,55.63
2023-04-16T13:34:38.325Z,71.06
2023-04-16T13:37:06.456Z,77.71
2023-04-16T13:39:35.003Z,83.31
2023-04-16T13:42:03.260Z,85.79
2023-04-16T13:44:31.283Z,87.53
2023-04-16T13:46:59.803Z,89.24
2023-04-16T13:49:28.386Z,89.65
2023-04-16T13:51:57.854Z,89.84
2023-04-16T13:54:25.839Z,90.35
2023-04-16T13:56:54.047Z,90.45
2023-04-16T13:59:22.253Z,89.50
2023-04-16T14:01:50.398Z,88.73
2023-04-16T14:04:18.782Z,86.94
2023-04-16T14:06:46.794Z,86.59
2023-04-16T14:09:16.264Z,84.03
2023-04-16T14:11:44.439Z,81.83
2023-04-16T14:14:12.880Z,80.43
2023-04-16T14:16:41.110Z,80.41
2023-04-16T14:19:09.689Z,80.62
2023-04-16T14:21:37.897Z,79.12
2023-04-16T14:24:06.248Z,83.67
2023-04-16T14:26:35.572Z,89.19
2023-04-16T14:29:03.540Z,92.30
2023-04-16T14:31:32.436Z,93.05
2023-04-16T14:34:00.982Z,91.41
2023-04-16T14:36:28.969Z,91.77
2023-04-16T14:38:56.965Z,90.77
2023-04-16T14:41:24.888Z,92.16
2023-04-16T14:43:54.255Z,93.66
2023-04-16T14:46:22.272Z,94.28
2023-04-16T14:48:50.335Z,94.68
2023-04-16T14:51:18.270Z,93.56
2023-04-16T14:53:46.289Z,93.54
2023-04-16T14:56:14.688Z,93.29
2023-04-16T14:58:43.022Z,91.99
2023-04-16T15:01:14.108Z,91.23
2023-04-16T15:03:43.215Z,89.32
2023-04-16T15:06:11.615Z,90.46
2023-04-16T15:08:39.615Z,87.96
2023-04-16T15:11:07.538Z,89.52
2023-04-16T15:13:35.483Z,91.20
2023-04-16T15:16:04.506Z,92.48
2023-04-16T15:18:34.331Z,91.92
2023-04-16T15:21:02.259Z,90.13
2023-04-16T15:23:30.249Z,89.16
2023-04-16T15:25:58.227Z,89.71
2023-04-16T15:28:26.247Z,89.09
2023-04-16T15:30:54.408Z,89.95
2023-04-16T15:33:22.639Z,89.65
2023-04-16T15:35:52.574Z,90.45
2023-04-16T15:38:22.008Z,91.10
2023-04-16T15:40:50.007Z,91.30
2023-04-16T15:43:18.016Z,91.46
2023-04-16T15:45:45.995Z,91.74
2023-04-16T15:48:14.384Z,93.04
2023-04-16T15:50:42.521Z,92.76
2023-04-16T15:53:12.937Z,94.86
2023-04-16T15:55:40.928Z,97.85
2023-04-16T15:58:08.984Z,100.00
2023-04-16T16:00:37.034Z,100.00
2023-04-16T16:03:05.235Z,100.00
2023-04-16T16:05:33.403Z,100.00
2023-04-16T16:08:01.965Z,100.00
2023-04-16T16:10:31.809Z,100.00
2023-04-16T16:13:05.441Z,100.00
2023-04-16T16:15:33.456Z,100.00
2023-04-16T16:18:01.887Z,100.00
2023-04-16T16:20:30.067Z,100.00
2023-04-16T16:22:58.152Z,100.00
2023-04-16T16:25:26.097Z,100.00
2023-04-16T16:27:55.492Z,100.00
2023-04-16T16:30:23.583Z,100.00
2023-04-16T16:32:51.588Z,100.00
2023-04-16T16:35:19.884Z,100.00
2023-04-16T16:37:47.901Z,100.00
2023-04-16T16:40:16.237Z,100.00
2023-04-16T16:42:44.287Z,100.00
2023-04-16T16:45:13.841Z,100.00
2023-04-16T16:47:41.928Z,100.00
2023-04-16T16:50:11.505Z,100.00
2023-04-16T16:52:39.637Z,100.00
2023-04-16T16:55:11.008Z,100.00
2023-04-16T16:57:39.421Z,100.00
2023-04-16T17:00:14.383Z,100.00
2023-04-16T17:02:44.150Z,100.00
2023-04-16T17:05:12.609Z,100.00
2023-04-16T17:07:40.819Z,100.00
2023-04-16T17:10:11.289Z,100.00
2023-04-16T17:12:39.200Z,100.00
2023-04-16T17:15:08.154Z,100.00
2023-04-16T17:17:36.557Z,100.00
2023-04-16T17:20:09.807Z,100.00
2023-04-16T17:22:38.896Z,100.00
2023-04-16T17:25:08.359Z,100.00
2023-04-16T17:27:36.622Z,100.00
2023-04-16T17:30:05.936Z,100.00
2023-04-16T17:32:34.456Z,100.00
2023-04-16T17:35:04.242Z,100.00
2023-04-16T17:37:34.312Z,100.00
2023-04-16T17:40:06.455Z,100.00
2023-04-16T17:42:34.734Z,100.00
2023-04-16T17:45:02.696Z,100.00
2023-04-16T17:47:30.764Z,100.00
2023-04-16T17:49:58.736Z,100.00
2023-04-16T17:52:26.695Z,100.00
2023-04-16T17:55:01.351Z,100.00
2023-04-16T17:57:29.759Z,100.00
2023-04-16T17:59:58.065Z,100.00
2023-04-16T18:02:26.179Z,100.00
2023-04-16T18:04:54.361Z,100.00
2023-04-16T18:07:22.413Z,100.00
2023-04-16T18:09:50.364Z,100.00
2023-04-16T18:12:19.893Z,100.00
2023-04-16T18:14:47.818Z,100.00
2023-04-16T18:17:15.868Z,100.00
2023-04-16T18:19:44.549Z,100.00
2023-04-16T18:22:13.317Z,100.00
2023-04-16T18:24:41.294Z,100.00
2023-04-16T18:27:09.371Z,100.00
2023-04-16T18:29:40.202Z,100.00
2023-04-16T18:32:11.805Z,100.00
2023-04-16T18:34:40.383Z,100.00
2023-04-16T18:37:08.416Z,100.00
2023-04-16T18:39:36.792Z,100.00
2023-04-16T18:42:05.249Z,100.00
2023-04-16T18:44:33.340Z,100.00
2023-04-16T18:47:02.789Z,100.00
2023-04-16T18:49:30.814Z,100.00
2023-04-16T18:51:58.702Z,100.00
2023-04-16T18:54:27.776Z,100.00
2023-04-16T18:56:57.062Z,100.00
2023-04-16T18:59:25.947Z,100.00
2023-04-16T19:01:53.972Z,100.00
2023-04-16T19:04:23.323Z,100.00
2023-04-16T19:06:51.294Z,100.00
2023-04-16T19:09:19.955Z,100.00
2023-04-16T19:11:50.565Z,100.00
2023-04-16T19:14:18.636Z,100.00
2023-04-16T19:16:47.365Z,100.00
2023-04-16T19:19:15.522Z,100.00
2023-04-16T19:21:44.851Z,100.00
2023-04-16T19:24:12.783Z,100.00
2023-04-16T19:26:40.664Z,100.00
2023-04-16T19:29:08.827Z,100.00
2023-04-16T19:31:37.167Z,100.00
2023-04-16T19:34:05.149Z,100.00
2023-04-16T19:36:33.350Z,100.00
2023-04-16T19:39:02.670Z,100.00
2023-04-16T19:41:30.589Z,100.00
2023-04-16T19:43:58.498Z,100.00
2023-04-16T19:46:26.404Z,100.00
2023-04-16T19:48:54.344Z,100.00
2023-04-16T19:51:22.232Z,100.00
2023-04-16T19:53:50.240Z,100.00
2023-04-16T19:56:19.529Z,100.00
2023-04-16T19:58:47.455Z,100.00
2023-04-16T20:01:15.493Z,100.00
2023-04-16T20:03:43.501Z,100.00
2023-04-16T20:06:11.489Z,100.00
2023-04-16T20:08:39.410Z,100.00
2023-04-16T20:11:08.674Z,100.00
2023-04-16T20:13:38.939Z,100.00
2023-04-16T20:16:09.339Z,100.00
2023-04-16T20:18:41.355Z,100.00
2023-04-16T20:21:09.679Z,100.00
2023-04-16T20:23:37.589Z,100.00
2023-04-16T20:26:05.609Z,100.00
2023-04-16T20:28:33.636Z,100.00
2023-04-16T20:31:02.974Z,100.00
2023-04-16T20:33:30.895Z,100.00
2023-04-16T20:35:58.842Z,100.00
2023-04-16T20:38:29.660Z,100.00
2023-04-16T20:41:06.496Z,100.00
2023-04-16T20:43:38.613Z,100.00
2023-04-16T20:46:08.484Z,100.00
2023-04-16T20:48:36.589Z,100.00
2023-04-16T20:51:05.604Z,100.00
2023-04-16T20:53:34.193Z,100.00
2023-04-16T20:56:02.137Z,100.00
2023-04-16T20:58:30.233Z,100.00
2023-04-16T21:00:58.719Z,100.00
2023-04-16T21:03:28.177Z,100.00
2023-04-16T21:05:56.777Z,100.00
2023-04-16T21:08:25.595Z,100.00
2023-04-16T21:10:53.565Z,100.00
2023-04-16T21:13:21.928Z,100.00
2023-04-16T21:15:49.894Z,100.00
2023-04-16T21:18:18.640Z,100.00
2023-04-16T21:20:47.935Z,100.00
2023-04-16T21:23:15.928Z,100.00
2023-04-16T21:25:43.844Z,100.00
2023-04-16T21:28:11.749Z,100.00
2023-04-16T21:30:39.698Z,100.00
2023-04-16T21:33:08.054Z,100.00
2023-04-16T21:35:35.968Z,100.00
2023-04-16T21:38:05.276Z,100.00
2023-04-16T21:40:33.339Z,100.00
2023-04-16T21:43:01.224Z,100.00
2023-04-16T21:45:30.503Z,100.00
2023-04-16T21:47:58.666Z,100.00
2023-04-16T21:50:26.772Z,100.00
2023-04-16T21:52:54.896Z,100.00
2023-04-16T21:55:24.682Z,100.00
2023-04-16T21:57:52.635Z,100.00
2023-04-16T22:00:21.334Z,100.00
2023-04-16T22:02:49.402Z,100.00
2023-04-16T22:05:17.716Z,100.00
2023-04-16T22:07:45.722Z,100.00
2023-04-16T22:10:15.143Z,100.00
2023-04-16T22:12:45.849Z,100.00
2023-04-16T22:15:14.504Z,100.00
2023-04-16T22:17:42.485Z,100.00
2023-04-16T22:20:13.123Z,100.00
2023-04-16T22:22:41.322Z,100.00
2023-04-16T22:25:09.885Z,100.00
2023-04-16T22:27:38.045Z,100.00
2023-04-16T22:30:09.271Z,100.00
2023-04-16T22:32:37.250Z,100.00
2023-04-16T22:35:05.596Z,100.00
2023-04-16T22:37:33.616Z,100.00
2023-04-16T22:40:01.630Z,100.00
2023-04-16T22:42:29.721Z,100.00
2023-04-16T22:44:57.686Z,100.00
2023-04-16T22:47:27.086Z,100.00
2023-04-16T22:49:55.011Z,100.00
2023-04-16T22:52:22.929Z,100.00
2023-04-16T22:54:51.026Z,100.00
2023-04-16T22:57:21.196Z,100.00
2023-04-16T22:59:49.158Z,100.00
2023-04-16T23:02:17.473Z,100.00
2023-04-16T23:04:47.986Z,100.00
2023-04-16T23:07:16.312Z,100.00
2023-04-16T23:09:44.205Z,100.00
2023-04-16T23:12:12.170Z,100.00
2023-04-16T23:14:40.096Z,100.00
2023-04-16T23:17:09.128Z,100.00
2023-04-16T23:19:37.045Z,100.00
2023-04-16T23:22:06.351Z,100.00
2023-04-16T23:24:34.280Z,100.00
2023-04-16T23:27:02.835Z,100.00
2023-04-16T23:29:30.756Z,100.00
2023-04-16T23:31:58.832Z,100.00
2023-04-16T23:34:26.846Z,100.00
2023-04-16T23:36:54.771Z,100.00
2023-04-16T23:39:24.072Z,100.00
2023-04-16T23:41:52.044Z,100.00
2023-04-16T23:44:19.993Z,100.00
2023-04-16T23:46:47.997Z,100.00
2023-04-16T23:49:16.309Z,100.00
2023-04-16T23:51:44.232Z,100.00
2023-04-16T23:54:12.132Z,100.00
2023-04-16T23:56:41.500Z,100.00
2023-04-16T23:59:10.981Z,100.00
